Luanda, Angola

4:10 PM WAT on February 11, 2016 (GMT +0100)
4th Of February | | Change Station
CLOSE
Current Station
Airport
Location: Luanda,
Elevation: 243 ft
Nearby Weather Stations

Elev 243 ft 8.86 °S, 13.23 °E | Updated 10 minutes ago

Scattered Clouds
Scattered Clouds
84 °F
Feels Like 92 °F
N
9
Wind Variable Wind from WNW

Today
High -- | Low -- °F
--% Chance of Precip.
Yesterday
High -- | Low -- °F
Precip. -- in
Pressure 29.77 in
Visibility 6.2 miles
Clouds Few 2200 ft
Few 2500 ft
Scattered Clouds 25000 ft
Heat Index 92 °F
Dew Point 75 °F
Humidity 74%
Rainfall 0.00 in
Snow Depth Not available.
6:08 AM 6:33 PM
Waxing Crescent, 12% visible
METAR FNLU 111500Z 30008KT 9999 FEW022 FEW025CB SCT250 29/24 Q1008 NOSIG
Pressure 29.77 in
Visibility 6.2 miles
Clouds Few 2200 ft
Few 2500 ft
Scattered Clouds 25000 ft
Heat Index 92 °F
Dew Point 75 °F
Humidity 74%
Rainfall 0.00 in
Snow Depth Not available.
6:08 AM 6:33 PM
Waxing Crescent, 12% visible
METAR FNLU 111500Z 30008KT 9999 FEW022 FEW025CB SCT250 29/24 Q1008 NOSIG

10-Day Weather Forecast

No radar image for this location.
×

Almanac

Astronomy

Feb. 11, 2016 Rise Set
Actual Time
Civil Twilight
Nautical Twilight
Astronomical Twilight
Moon
Length of Visible Light
Length of Day
Tomorrow will be .
, % of the Moon is Illuminated

Today's Extremes

Country Highs Country Lows

Community

WunderPhotos

Upload Photos

1,892,059 photos uploaded!

WunderBlog® & News

Nearby

Air Quality

  Air Quality AQ Index Pollutant
Not available.

Snow Depth

Station Depth Elevation

Earthquake Activity

City Distance Mag. Time & Date
Minimum magnitude displayed is 2.5.

Coastal Water Temperatures

Place Temperature

Stations

Nearby Weather Stations

Station Location Temp. Windchill Dew Point Humidity Wind Precip. Elev Updated Type